Time;durP1;ratioP1;P1;durP2;ratioP2;P2;SDS_P1;SDS_P2;PMS_P1;PMS_P2;Temp;Humidity;BMP_temperature;BMP_pressure;BME280_temperature;BME280_humidity;BME280_pressure;Samples;Min_cycle;Max_cycle;Signal;HPM_P1;HPM_P2
2021/03/19 00:08:02;;;;;;;11.25;8.32;;;;;;;18.14;34.19;101205.38;31687449;28;20269;-62
2021/03/19 00:23:04;;;;;;;10.52;8.15;;;;;;;18.01;34.61;101202.84;31694042;28;20035;-61
2021/03/19 00:38:05;;;;;;;12.43;9.77;;;;;;;17.96;34.83;101216.31;31724481;28;20542;-58
2021/03/19 00:53:06;;;;;;;13.68;10.23;;;;;;;17.96;34.71;101236.53;31718551;28;20490;-61
2021/03/19 01:08:08;;;;;;;14.88;10.70;;;;;;;17.95;34.63;101243.56;31663686;28;20027;-60
2021/03/19 01:23:09;;;;;;;16.58;12.43;;;;;;;17.96;34.91;101262.81;31656143;28;20028;-61
2021/03/19 01:38:11;;;;;;;16.50;13.05;;;;;;;17.91;34.95;101257.03;31734531;28;20043;-60
2021/03/19 01:53:49;;;;;;;16.75;13.73;;;;;;;17.83;35.15;101249.72;31732169;28;20047;-60
2021/03/19 02:09:27;;;;;;;16.58;13.88;;;;;;;17.74;35.27;101260.88;31663787;28;20092;-59
2021/03/19 02:25:05;;;;;;;17.20;14.45;;;;;;;17.67;35.41;101268.34;31714251;28;20024;-57
2021/03/19 02:40:16;;;;;;;17.97;14.87;;;;;;;17.61;35.73;101273.19;31619845;28;20543;-58
2021/03/19 02:55:17;;;;;;;19.08;14.73;;;;;;;17.53;35.65;101276.38;31751812;28;20044;-60
2021/03/19 03:10:18;;;;;;;17.42;14.70;;;;;;;17.50;35.68;101292.34;31663163;28;20074;-58
2021/03/19 03:25:20;;;;;;;17.83;14.70;;;;;;;17.45;35.90;101311.06;31706391;28;20032;-58
2021/03/19 03:40:31;;;;;;;19.20;15.23;;;;;;;17.40;35.80;101318.44;31675205;28;20035;-57
2021/03/19 03:55:35;;;;;;;19.60;15.13;;;;;;;17.35;36.02;101315.28;31750093;28;20108;-58
2021/03/19 04:10:36;;;;;;;17.88;14.65;;;;;;;17.32;35.98;101318.97;31633250;28;20043;-60
2021/03/19 04:25:37;;;;;;;16.75;13.63;;;;;;;17.28;36.06;101335.06;31710383;28;20028;-60
2021/03/19 04:40:40;;;;;;;16.25;13.70;;;;;;;17.23;36.03;101343.25;31674056;28;20464;-60
2021/03/19 04:55:41;;;;;;;18.08;13.63;;;;;;;17.22;36.18;101364.38;31726912;28;20044;-60
2021/03/19 05:10:42;;;;;;;17.65;13.40;;;;;;;17.17;36.32;101381.28;31639130;28;20044;-59
2021/03/19 05:25:43;;;;;;;16.85;12.80;;;;;;;17.15;36.31;101385.78;31684544;28;20019;-58
2021/03/19 05:40:52;;;;;;;16.08;12.95;;;;;;;17.15;36.38;101379.69;31658488;28;20038;-59
2021/03/19 05:55:53;;;;;;;16.13;11.93;;;;;;;17.25;35.92;101391.28;31720757;28;20028;-60
2021/03/19 06:11:03;;;;;;;15.25;11.85;;;;;;;17.34;36.05;101410.81;31643381;28;20039;-60
2021/03/19 06:26:25;;;;;;;17.98;12.95;;;;;;;17.42;35.59;101431.34;31720483;28;20044;-59
2021/03/19 06:41:31;;;;;;;17.38;12.02;;;;;;;17.63;35.16;101448.25;31637923;28;20534;-60
2021/03/19 06:56:33;;;;;;;16.45;11.40;;;;;;;17.84;34.92;101456.50;31698486;28;20039;-53
2021/03/19 07:12:01;;;;;;;15.18;11.35;;;;;;;17.88;34.62;101486.06;31692625;28;20032;-53
2021/03/19 07:27:29;;;;;;;15.25;10.73;;;;;;;18.03;35.25;101497.31;31720744;28;20020;-59
2021/03/19 07:42:39;;;;;;;;;;;;;;;16.15;30.85;101505.94;31714842;27;20028;-63
2021/03/19 07:57:52;;;;;;;38.83;15.35;;;;;;;16.50;34.13;101530.88;31706755;27;19939;-64
2021/03/19 08:13:18;;;;;;;15.02;10.18;;;;;;;18.91;28.79;101549.94;31726063;27;20035;-64
2021/03/19 08:28:38;;;;;;;12.38;8.98;;;;;;;19.83;26.13;101549.25;31691842;27;20027;-65
2021/03/19 08:43:41;;;;;;;11.15;8.10;;;;;;;19.09;26.72;101576.75;31643991;27;20116;-62
2021/03/19 08:58:48;;;;;;;9.95;7.43;;;;;;;18.22;28.16;101566.13;31620493;27;20126;-63
2021/03/19 09:14:04;;;;;;;11.80;4.80;;;;;;;18.77;29.44;101575.47;31635474;27;20032;-62
2021/03/19 09:29:15;;;;;;;9.85;5.30;;;;;;;19.31;33.15;101583.91;31639130;27;20068;-62
2021/03/19 09:44:34;;;;;;;10.75;4.72;;;;;;;20.09;31.18;101600.03;31724801;27;20031;-64
2021/03/19 09:59:35;;;;;;;8.45;4.65;;;;;;;20.49;30.91;101612.78;31725361;27;20485;-66
2021/03/19 10:14:41;;;;;;;10.63;4.63;;;;;;;20.75;30.74;101606.47;31674471;28;20053;-64
2021/03/19 10:29:43;;;;;;;8.53;4.67;;;;;;;22.52;28.40;101598.03;31671112;28;20044;-67
2021/03/19 10:44:54;;;;;;;8.68;4.20;;;;;;;22.25;28.55;101602.06;31678000;28;20489;-63
2021/03/19 10:59:55;;;;;;;8.45;3.53;;;;;;;22.44;28.35;101581.94;31697924;28;20505;-62
2021/03/19 11:14:57;;;;;;;9.27;7.63;;;;;;;22.32;28.95;101583.84;31719902;28;20031;-61
2021/03/19 11:30:34;;;;;;;11.70;7.15;;;;;;;21.36;30.85;101619.19;31745519;27;20339;-63
2021/03/19 11:45:38;;;;;;;8.68;4.57;;;;;;;22.14;30.05;101612.72;31746174;27;20028;-67
2021/03/19 12:00:41;;;;;;;8.20;4.95;;;;;;;21.34;30.78;101628.09;31736160;28;20092;-67
2021/03/19 12:15:42;;;;;;;7.53;4.57;;;;;;;20.64;32.33;101639.84;31709839;28;20082;-67
2021/03/19 12:30:46;;;;;;;7.32;4.30;;;;;;;20.67;32.08;101636.97;31731118;27;20062;-67
2021/03/19 12:45:47;;;;;;;8.52;4.43;;;;;;;20.27;32.46;101637.41;31689515;28;20036;-67
2021/03/19 13:00:48;;;;;;;6.80;4.07;;;;;;;20.50;32.32;101653.25;31697078;28;20036;-66
2021/03/19 13:15:51;;;;;;;5.63;3.60;;;;;;;21.01;32.30;101659.91;31712413;28;20338;-63
2021/03/19 13:30:53;;;;;;;5.93;3.33;;;;;;;21.41;31.47;101656.72;31730150;28;20027;-63
2021/03/19 13:45:54;;;;;;;6.80;3.17;;;;;;;21.33;31.02;101657.31;31690812;28;20056;-63
2021/03/19 14:00:59;;;;;;;6.55;3.53;;;;;;;20.91;31.86;101672.97;31725840;28;20039;-63
2021/03/19 14:16:00;;;;;;;5.57;3.50;;;;;;;20.75;32.10;101712.97;31706012;28;20468;-63
2021/03/19 14:31:02;;;;;;;4.73;2.90;;;;;;;20.58;32.12;101697.59;31724780;28;20042;-63
2021/03/19 14:46:03;;;;;;;5.00;2.90;;;;;;;20.67;31.98;101710.09;31744016;28;20335;-63
2021/03/19 15:01:04;;;;;;;9.60;6.13;;;;;;;20.69;32.31;101705.53;31741692;28;20043;-64
2021/03/19 15:16:06;;;;;;;8.00;4.07;;;;;;;20.57;32.86;101722.31;31761001;28;20043;-62
2021/03/19 15:31:07;;;;;;;5.75;3.42;;;;;;;20.49;33.44;101723.72;31802370;28;20449;-63
2021/03/19 15:46:08;;;;;;;4.97;3.50;;;;;;;20.31;33.89;101727.75;31740953;27;20485;-64
2021/03/19 16:01:09;;;;;;;6.70;3.55;;;;;;;20.23;33.91;101741.53;31766117;28;20032;-64
2021/03/19 16:16:10;;;;;;;4.40;2.67;;;;;;;20.15;33.26;101767.66;31743147;27;20201;-64
2021/03/19 16:31:14;;;;;;;5.37;2.60;;;;;;;20.20;33.83;101784.00;31728848;28;20305;-63
2021/03/19 16:46:15;;;;;;;3.70;2.40;;;;;;;20.10;33.90;101809.38;31704235;28;20282;-62
2021/03/19 17:01:17;;;;;;;3.70;1.90;;;;;;;19.83;33.50;101822.78;31725269;28;20038;-62
2021/03/19 17:16:18;;;;;;;3.95;2.60;;;;;;;19.69;32.80;101836.13;31708552;28;20770;-63
2021/03/19 17:31:19;;;;;;;4.67;2.63;;;;;;;19.79;32.02;101859.09;31707947;28;20027;-60
2021/03/19 17:46:22;;;;;;;4.72;2.30;;;;;;;19.82;31.48;101876.50;31717474;28;20840;-63
2021/03/19 18:01:28;;;;;;;4.10;2.33;;;;;;;19.78;31.56;101899.59;31716554;28;20061;-62
2021/03/19 18:16:29;;;;;;;3.73;2.10;;;;;;;19.73;32.01;101928.09;31700767;28;20031;-64
2021/03/19 18:31:30;;;;;;;4.70;2.10;;;;;;;19.73;33.08;101940.47;31689301;28;20032;-64
2021/03/19 18:46:31;;;;;;;4.50;2.10;;;;;;;19.31;33.61;101969.63;31635031;28;20290;-63
2021/03/19 19:01:33;;;;;;;5.17;1.90;;;;;;;19.21;33.68;101990.47;31682526;28;20039;-64
2021/03/19 19:16:34;;;;;;;3.50;1.75;;;;;;;19.12;33.61;102012.16;31696838;28;20326;-64
2021/03/19 19:31:35;;;;;;;4.20;1.50;;;;;;;18.38;26.48;102018.66;31720305;28;20404;-64
2021/03/19 19:46:36;;;;;;;6.50;1.63;;;;;;;13.63;26.87;102045.81;31714167;27;20334;-62
2021/03/19 20:01:37;;;;;;;3.63;1.30;;;;;;;16.22;33.80;102053.75;31700966;27;20032;-62
2021/03/19 20:16:38;;;;;;;2.40;1.13;;;;;;;17.92;32.34;102055.69;31698377;28;20034;-63
2021/03/19 20:31:40;;;;;;;5.22;1.50;;;;;;;18.81;27.83;102072.13;31686078;28;20467;-61
2021/03/19 20:46:41;;;;;;;3.50;1.30;;;;;;;19.38;29.71;102080.81;31662366;27;20031;-62
2021/03/19 21:01:44;;;;;;;4.73;1.10;;;;;;;19.85;29.72;102096.09;31660354;28;20058;-63
2021/03/19 21:16:45;;;;;;;3.72;1.10;;;;;;;20.14;29.94;102092.44;31710791;28;20307;-62
2021/03/19 21:31:48;;;;;;;3.00;1.05;;;;;;;20.22;30.14;102112.06;31688348;28;20080;-61
2021/03/19 21:46:49;;;;;;;2.17;1.10;;;;;;;20.24;30.60;102126.00;31658893;28;20064;-64
2021/03/19 22:01:50;;;;;;;3.20;1.23;;;;;;;20.21;30.68;102133.31;31670754;28;20048;-62
2021/03/19 22:16:52;;;;;;;2.90;1.30;;;;;;;20.10;29.33;102147.22;31653210;28;20372;-64
2021/03/19 22:31:53;;;;;;;3.67;1.60;;;;;;;19.98;29.83;102153.34;31669588;28;20293;-64
2021/03/19 22:46:54;;;;;;;3.42;1.67;;;;;;;19.38;27.25;102144.91;31673712;28;20065;-66
2021/03/19 23:01:55;;;;;;;4.13;1.40;;;;;;;19.06;27.91;102146.97;31700888;27;20039;-65
2021/03/19 23:16:56;;;;;;;3.65;1.25;;;;;;;19.08;29.28;102154.78;31723331;27;20658;-64
2021/03/19 23:31:57;;;;;;;5.13;1.30;;;;;;;18.90;30.05;102155.00;31737620;28;20469;-63
2021/03/19 23:46:58;;;;;;;2.77;1.37;;;;;;;18.72;30.35;102164.03;31749383;28;20281;-63
